sensor_id;sensor_type;location;lat;lon;timestamp;temperature;humidity
4201;DHT22;2114;50.398;8.814;2023-02-03T00:01:06;6.80;99.90
4201;DHT22;2114;50.398;8.814;2023-02-03T00:06:07;6.80;99.90
4201;DHT22;2114;50.398;8.814;2023-02-03T00:11:07;6.80;99.90
4201;DHT22;2114;50.398;8.814;2023-02-03T00:16:08;6.80;99.90
4201;DHT22;2114;50.398;8.814;2023-02-03T00:21:09;6.80;99.90
4201;DHT22;2114;50.398;8.814;2023-02-03T00:26:15;6.80;99.90
4201;DHT22;2114;50.398;8.814;2023-02-03T00:31:21;6.80;99.90
4201;DHT22;2114;50.398;8.814;2023-02-03T00:36:22;6.80;99.90
4201;DHT22;2114;50.398;8.814;2023-02-03T00:41:28;6.80;99.90
4201;DHT22;2114;50.398;8.814;2023-02-03T00:46:29;6.90;99.90
4201;DHT22;2114;50.398;8.814;2023-02-03T00:51:29;6.90;99.90
4201;DHT22;2114;50.398;8.814;2023-02-03T00:56:30;6.90;99.90
4201;DHT22;2114;50.398;8.814;2023-02-03T01:01:31;6.90;99.90
4201;DHT22;2114;50.398;8.814;2023-02-03T01:06:32;6.80;99.90
4201;DHT22;2114;50.398;8.814;2023-02-03T01:11:32;6.80;99.90
4201;DHT22;2114;50.398;8.814;2023-02-03T01:16:33;6.80;99.90
4201;DHT22;2114;50.398;8.814;2023-02-03T01:21:37;6.80;99.90
4201;DHT22;2114;50.398;8.814;2023-02-03T01:26:37;6.70;99.90
4201;DHT22;2114;50.398;8.814;2023-02-03T01:31:39;6.70;99.90
4201;DHT22;2114;50.398;8.814;2023-02-03T01:36:41;6.70;99.90
4201;DHT22;2114;50.398;8.814;2023-02-03T01:41:42;6.70;99.90
4201;DHT22;2114;50.398;8.814;2023-02-03T01:46:47;6.70;99.90
4201;DHT22;2114;50.398;8.814;2023-02-03T01:51:49;6.70;99.90
4201;DHT22;2114;50.398;8.814;2023-02-03T01:56:54;6.70;99.90
4201;DHT22;2114;50.398;8.814;2023-02-03T02:01:56;6.70;99.90
4201;DHT22;2114;50.398;8.814;2023-02-03T02:06:57;6.70;99.90
4201;DHT22;2114;50.398;8.814;2023-02-03T02:11:58;6.70;99.90
4201;DHT22;2114;50.398;8.814;2023-02-03T02:17:08;6.70;99.90
4201;DHT22;2114;50.398;8.814;2023-02-03T02:22:17;6.70;99.90
4201;DHT22;2114;50.398;8.814;2023-02-03T02:28:36;6.70;99.90
4201;DHT22;2114;50.398;8.814;2023-02-03T02:39:00;6.70;99.90
4201;DHT22;2114;50.398;8.814;2023-02-03T02:44:24;6.70;99.90
4201;DHT22;2114;50.398;8.814;2023-02-03T02:49:58;6.70;99.90
4201;DHT22;2114;50.398;8.814;2023-02-03T02:55:07;6.70;99.90
4201;DHT22;2114;50.398;8.814;2023-02-03T03:00:11;6.70;99.90
4201;DHT22;2114;50.398;8.814;2023-02-03T03:05:12;6.70;99.90
4201;DHT22;2114;50.398;8.814;2023-02-03T03:10:15;6.70;99.90
4201;DHT22;2114;50.398;8.814;2023-02-03T03:15:26;6.70;99.90
4201;DHT22;2114;50.398;8.814;2023-02-03T03:20:27;6.70;99.90
4201;DHT22;2114;50.398;8.814;2023-02-03T03:25:33;6.80;99.90
4201;DHT22;2114;50.398;8.814;2023-02-03T03:30:36;6.80;99.90
4201;DHT22;2114;50.398;8.814;2023-02-03T03:35:46;6.80;99.90
4201;DHT22;2114;50.398;8.814;2023-02-03T03:40:58;6.80;99.90
4201;DHT22;2114;50.398;8.814;2023-02-03T03:46:07;6.80;99.90
4201;DHT22;2114;50.398;8.814;2023-02-03T03:51:29;6.80;99.90
4201;DHT22;2114;50.398;8.814;2023-02-03T03:56:35;6.80;99.90
4201;DHT22;2114;50.398;8.814;2023-02-03T04:01:38;6.80;99.90
4201;DHT22;2114;50.398;8.814;2023-02-03T04:06:39;6.80;99.90
4201;DHT22;2114;50.398;8.814;2023-02-03T04:11:40;6.80;99.90
4201;DHT22;2114;50.398;8.814;2023-02-03T04:16:59;6.90;99.90
4201;DHT22;2114;50.398;8.814;2023-02-03T04:22:00;6.90;99.90
4201;DHT22;2114;50.398;8.814;2023-02-03T04:27:00;6.90;99.90
4201;DHT22;2114;50.398;8.814;2023-02-03T04:32:01;6.90;99.90
4201;DHT22;2114;50.398;8.814;2023-02-03T04:37:01;6.90;99.90
4201;DHT22;2114;50.398;8.814;2023-02-03T04:42:02;6.90;99.90
4201;DHT22;2114;50.398;8.814;2023-02-03T04:47:03;6.90;99.90
4201;DHT22;2114;50.398;8.814;2023-02-03T04:52:03;6.90;99.90
4201;DHT22;2114;50.398;8.814;2023-02-03T04:57:05;6.90;99.90
4201;DHT22;2114;50.398;8.814;2023-02-03T05:02:05;6.90;99.90
4201;DHT22;2114;50.398;8.814;2023-02-03T05:07:08;6.90;99.90
4201;DHT22;2114;50.398;8.814;2023-02-03T05:12:09;6.90;99.90
4201;DHT22;2114;50.398;8.814;2023-02-03T05:17:09;6.90;99.90
4201;DHT22;2114;50.398;8.814;2023-02-03T05:22:10;7.00;99.90
4201;DHT22;2114;50.398;8.814;2023-02-03T05:27:11;7.00;99.90
4201;DHT22;2114;50.398;8.814;2023-02-03T05:32:11;7.00;99.90
4201;DHT22;2114;50.398;8.814;2023-02-03T05:37:12;7.00;99.90
4201;DHT22;2114;50.398;8.814;2023-02-03T05:42:12;7.00;99.90
4201;DHT22;2114;50.398;8.814;2023-02-03T05:47:13;7.00;99.90
4201;DHT22;2114;50.398;8.814;2023-02-03T05:52:13;7.00;99.90
4201;DHT22;2114;50.398;8.814;2023-02-03T05:57:14;7.00;99.90
4201;DHT22;2114;50.398;8.814;2023-02-03T06:02:14;7.00;99.90
4201;DHT22;2114;50.398;8.814;2023-02-03T06:07:15;7.00;99.90
4201;DHT22;2114;50.398;8.814;2023-02-03T06:12:15;7.00;99.90
4201;DHT22;2114;50.398;8.814;2023-02-03T06:17:16;7.00;99.90
4201;DHT22;2114;50.398;8.814;2023-02-03T06:22:17;7.00;99.90
4201;DHT22;2114;50.398;8.814;2023-02-03T06:27:17;7.00;99.90
4201;DHT22;2114;50.398;8.814;2023-02-03T06:32:18;7.00;99.90
4201;DHT22;2114;50.398;8.814;2023-02-03T06:37:18;7.00;99.90
4201;DHT22;2114;50.398;8.814;2023-02-03T06:42:19;7.00;99.90
4201;DHT22;2114;50.398;8.814;2023-02-03T06:47:20;7.00;99.90
4201;DHT22;2114;50.398;8.814;2023-02-03T06:52:20;7.00;99.90
4201;DHT22;2114;50.398;8.814;2023-02-03T06:57:21;7.00;99.90
4201;DHT22;2114;50.398;8.814;2023-02-03T07:02:21;7.00;99.90
4201;DHT22;2114;50.398;8.814;2023-02-03T07:07:22;7.00;99.90
4201;DHT22;2114;50.398;8.814;2023-02-03T07:12:22;7.00;99.90
4201;DHT22;2114;50.398;8.814;2023-02-03T07:17:23;7.10;99.90
4201;DHT22;2114;50.398;8.814;2023-02-03T07:22:24;7.00;99.90
4201;DHT22;2114;50.398;8.814;2023-02-03T07:27:25;7.10;99.90
4201;DHT22;2114;50.398;8.814;2023-02-03T07:32:27;7.10;99.90
4201;DHT22;2114;50.398;8.814;2023-02-03T07:37:27;7.10;99.90
4201;DHT22;2114;50.398;8.814;2023-02-03T07:42:28;7.10;99.90
4201;DHT22;2114;50.398;8.814;2023-02-03T07:47:28;7.10;99.90
4201;DHT22;2114;50.398;8.814;2023-02-03T07:52:29;7.10;99.90
4201;DHT22;2114;50.398;8.814;2023-02-03T07:57:30;7.10;99.90
4201;DHT22;2114;50.398;8.814;2023-02-03T08:02:30;7.10;99.90
4201;DHT22;2114;50.398;8.814;2023-02-03T08:07:31;7.10;99.90
4201;DHT22;2114;50.398;8.814;2023-02-03T08:12:31;7.20;99.90
4201;DHT22;2114;50.398;8.814;2023-02-03T08:17:33;7.20;99.90
4201;DHT22;2114;50.398;8.814;2023-02-03T08:22:34;7.20;99.90
4201;DHT22;2114;50.398;8.814;2023-02-03T08:27:34;7.20;99.90
4201;DHT22;2114;50.398;8.814;2023-02-03T08:32:35;7.30;99.90
4201;DHT22;2114;50.398;8.814;2023-02-03T08:37:35;7.30;99.90
4201;DHT22;2114;50.398;8.814;2023-02-03T08:42:36;7.40;99.90
4201;DHT22;2114;50.398;8.814;2023-02-03T08:47:37;7.40;99.90
4201;DHT22;2114;50.398;8.814;2023-02-03T08:52:39;7.50;99.90
4201;DHT22;2114;50.398;8.814;2023-02-03T08:57:39;7.50;99.90
4201;DHT22;2114;50.398;8.814;2023-02-03T09:02:41;7.60;99.90
4201;DHT22;2114;50.398;8.814;2023-02-03T09:07:42;7.70;99.90
4201;DHT22;2114;50.398;8.814;2023-02-03T09:12:42;7.70;99.90
4201;DHT22;2114;50.398;8.814;2023-02-03T09:17:43;7.70;99.90
4201;DHT22;2114;50.398;8.814;2023-02-03T09:22:43;7.70;99.90
4201;DHT22;2114;50.398;8.814;2023-02-03T09:27:44;7.80;99.90
4201;DHT22;2114;50.398;8.814;2023-02-03T09:32:45;7.90;99.90
4201;DHT22;2114;50.398;8.814;2023-02-03T09:37:48;8.00;99.90
4201;DHT22;2114;50.398;8.814;2023-02-03T09:48:19;8.10;99.90
4201;DHT22;2114;50.398;8.814;2023-02-03T09:53:28;8.20;99.90
4201;DHT22;2114;50.398;8.814;2023-02-03T09:58:34;8.30;99.90
4201;DHT22;2114;50.398;8.814;2023-02-03T10:04:05;8.30;99.90
4201;DHT22;2114;50.398;8.814;2023-02-03T10:15:20;8.30;99.90
4201;DHT22;2114;50.398;8.814;2023-02-03T10:20:37;8.30;99.90
4201;DHT22;2114;50.398;8.814;2023-02-03T10:25:47;8.40;99.90
4201;DHT22;2114;50.398;8.814;2023-02-03T10:30:54;8.40;99.90
4201;DHT22;2114;50.398;8.814;2023-02-03T10:36:21;8.40;99.90
4201;DHT22;2114;50.398;8.814;2023-02-03T10:41:23;8.60;99.90
4201;DHT22;2114;50.398;8.814;2023-02-03T10:46:37;8.70;99.90
4201;DHT22;2114;50.398;8.814;2023-02-03T10:56:45;9.00;99.90
4201;DHT22;2114;50.398;8.814;2023-02-03T11:01:48;9.10;99.90
4201;DHT22;2114;50.398;8.814;2023-02-03T11:07:03;9.30;99.90
4201;DHT22;2114;50.398;8.814;2023-02-03T11:12:15;9.40;99.90
4201;DHT22;2114;50.398;8.814;2023-02-03T11:17:22;9.50;99.90
4201;DHT22;2114;50.398;8.814;2023-02-03T11:27:31;9.50;99.90
4201;DHT22;2114;50.398;8.814;2023-02-03T11:32:35;9.50;99.90
4201;DHT22;2114;50.398;8.814;2023-02-03T11:37:38;9.50;99.90
4201;DHT22;2114;50.398;8.814;2023-02-03T11:43:29;9.40;99.90
4201;DHT22;2114;50.398;8.814;2023-02-03T11:48:45;9.30;99.90
4201;DHT22;2114;50.398;8.814;2023-02-03T11:54:11;9.20;99.90
4201;DHT22;2114;50.398;8.814;2023-02-03T12:05:16;9.00;99.90
4201;DHT22;2114;50.398;8.814;2023-02-03T12:10:43;9.00;99.90
4201;DHT22;2114;50.398;8.814;2023-02-03T12:31:35;8.90;99.90
4201;DHT22;2114;50.398;8.814;2023-02-03T12:42:06;8.90;99.90
4201;DHT22;2114;50.398;8.814;2023-02-03T12:52:46;8.80;99.90
4201;DHT22;2114;50.398;8.814;2023-02-03T13:03:34;8.70;99.90
4201;DHT22;2114;50.398;8.814;2023-02-03T13:14:13;8.70;99.90
4201;DHT22;2114;50.398;8.814;2023-02-03T13:19:21;8.60;99.90
4201;DHT22;2114;50.398;8.814;2023-02-03T13:24:25;8.60;99.90
4201;DHT22;2114;50.398;8.814;2023-02-03T13:29:49;8.50;99.90
4201;DHT22;2114;50.398;8.814;2023-02-03T13:35:09;8.50;99.90
4201;DHT22;2114;50.398;8.814;2023-02-03T13:45:42;8.50;99.90
4201;DHT22;2114;50.398;8.814;2023-02-03T13:50:45;8.40;99.90
4201;DHT22;2114;50.398;8.814;2023-02-03T13:55:58;8.50;99.90
4201;DHT22;2114;50.398;8.814;2023-02-03T14:01:06;8.50;99.90
4201;DHT22;2114;50.398;8.814;2023-02-03T14:11:38;8.50;99.90
4201;DHT22;2114;50.398;8.814;2023-02-03T14:16:46;8.50;99.90
4201;DHT22;2114;50.398;8.814;2023-02-03T14:22:07;8.50;99.90
4201;DHT22;2114;50.398;8.814;2023-02-03T14:27:18;8.50;99.90
4201;DHT22;2114;50.398;8.814;2023-02-03T14:32:19;8.50;99.90
4201;DHT22;2114;50.398;8.814;2023-02-03T14:37:25;8.50;99.90
4201;DHT22;2114;50.398;8.814;2023-02-03T14:58:33;8.50;99.90
4201;DHT22;2114;50.398;8.814;2023-02-03T15:03:35;8.50;99.90
4201;DHT22;2114;50.398;8.814;2023-02-03T15:08:46;8.40;99.90
4201;DHT22;2114;50.398;8.814;2023-02-03T15:13:47;8.40;99.90
4201;DHT22;2114;50.398;8.814;2023-02-03T15:18:58;8.40;99.90
4201;DHT22;2114;50.398;8.814;2023-02-03T15:24:00;8.40;99.90
4201;DHT22;2114;50.398;8.814;2023-02-03T15:29:03;8.40;99.90
4201;DHT22;2114;50.398;8.814;2023-02-03T15:34:19;8.40;99.90
4201;DHT22;2114;50.398;8.814;2023-02-03T15:39:46;8.40;99.90
4201;DHT22;2114;50.398;8.814;2023-02-03T15:44:59;8.40;99.90
4201;DHT22;2114;50.398;8.814;2023-02-03T15:50:14;8.30;99.90
4201;DHT22;2114;50.398;8.814;2023-02-03T15:55:44;8.30;99.90
4201;DHT22;2114;50.398;8.814;2023-02-03T16:00:49;8.30;99.90
4201;DHT22;2114;50.398;8.814;2023-02-03T16:05:52;8.30;99.90
4201;DHT22;2114;50.398;8.814;2023-02-03T16:10:53;8.30;99.90
4201;DHT22;2114;50.398;8.814;2023-02-03T16:16:05;8.30;99.90
4201;DHT22;2114;50.398;8.814;2023-02-03T16:21:29;8.20;99.90
4201;DHT22;2114;50.398;8.814;2023-02-03T16:26:31;8.20;99.90
4201;DHT22;2114;50.398;8.814;2023-02-03T16:31:40;8.20;99.90
4201;DHT22;2114;50.398;8.814;2023-02-03T16:37:01;8.20;99.90
4201;DHT22;2114;50.398;8.814;2023-02-03T16:42:37;8.20;99.90
4201;DHT22;2114;50.398;8.814;2023-02-03T16:47:57;8.20;99.90
4201;DHT22;2114;50.398;8.814;2023-02-03T16:53:20;8.20;99.90
4201;DHT22;2114;50.398;8.814;2023-02-03T16:58:21;8.10;99.90
4201;DHT22;2114;50.398;8.814;2023-02-03T17:03:24;8.10;99.90
4201;DHT22;2114;50.398;8.814;2023-02-03T17:08:25;8.10;99.90
4201;DHT22;2114;50.398;8.814;2023-02-03T17:13:26;8.10;99.90
4201;DHT22;2114;50.398;8.814;2023-02-03T17:18:26;8.10;99.90
4201;DHT22;2114;50.398;8.814;2023-02-03T17:23:27;8.00;99.90
4201;DHT22;2114;50.398;8.814;2023-02-03T17:28:28;8.00;99.90
4201;DHT22;2114;50.398;8.814;2023-02-03T17:33:29;8.00;99.90
4201;DHT22;2114;50.398;8.814;2023-02-03T17:38:31;7.90;99.90
4201;DHT22;2114;50.398;8.814;2023-02-03T17:43:35;7.90;99.90
4201;DHT22;2114;50.398;8.814;2023-02-03T17:48:36;7.70;99.90
4201;DHT22;2114;50.398;8.814;2023-02-03T17:53:37;7.60;99.90
4201;DHT22;2114;50.398;8.814;2023-02-03T17:58:39;7.60;99.90
4201;DHT22;2114;50.398;8.814;2023-02-03T18:03:43;7.50;99.90
4201;DHT22;2114;50.398;8.814;2023-02-03T18:08:45;7.50;99.90
4201;DHT22;2114;50.398;8.814;2023-02-03T18:13:47;7.40;99.90
4201;DHT22;2114;50.398;8.814;2023-02-03T18:18:48;7.30;99.90
4201;DHT22;2114;50.398;8.814;2023-02-03T18:23:52;7.30;99.90
4201;DHT22;2114;50.398;8.814;2023-02-03T18:28:56;7.20;99.90
4201;DHT22;2114;50.398;8.814;2023-02-03T18:34:01;7.20;99.90
4201;DHT22;2114;50.398;8.814;2023-02-03T18:39:02;7.20;99.90
4201;DHT22;2114;50.398;8.814;2023-02-03T18:44:03;7.10;99.90
4201;DHT22;2114;50.398;8.814;2023-02-03T18:49:06;7.10;99.90
4201;DHT22;2114;50.398;8.814;2023-02-03T18:54:07;7.10;99.90
4201;DHT22;2114;50.398;8.814;2023-02-03T18:59:09;7.10;99.90
4201;DHT22;2114;50.398;8.814;2023-02-03T19:04:10;7.10;99.90
4201;DHT22;2114;50.398;8.814;2023-02-03T19:09:12;7.00;99.90
4201;DHT22;2114;50.398;8.814;2023-02-03T19:14:14;7.00;99.90
4201;DHT22;2114;50.398;8.814;2023-02-03T19:19:16;7.00;99.90
4201;DHT22;2114;50.398;8.814;2023-02-03T19:24:17;7.00;99.90
4201;DHT22;2114;50.398;8.814;2023-02-03T19:29:18;7.00;99.90
4201;DHT22;2114;50.398;8.814;2023-02-03T19:34:19;7.00;99.90
4201;DHT22;2114;50.398;8.814;2023-02-03T19:39:20;6.90;99.90
4201;DHT22;2114;50.398;8.814;2023-02-03T19:44:20;6.90;99.90
4201;DHT22;2114;50.398;8.814;2023-02-03T19:49:21;6.90;99.90
4201;DHT22;2114;50.398;8.814;2023-02-03T19:54:22;6.90;99.90
4201;DHT22;2114;50.398;8.814;2023-02-03T19:59:22;6.90;99.90
4201;DHT22;2114;50.398;8.814;2023-02-03T20:04:23;6.90;99.90
4201;DHT22;2114;50.398;8.814;2023-02-03T20:09:24;6.80;99.90
4201;DHT22;2114;50.398;8.814;2023-02-03T20:14:25;6.80;99.90
4201;DHT22;2114;50.398;8.814;2023-02-03T20:19:25;6.80;99.90
4201;DHT22;2114;50.398;8.814;2023-02-03T20:24:26;6.90;99.90
4201;DHT22;2114;50.398;8.814;2023-02-03T20:29:27;6.90;99.90
4201;DHT22;2114;50.398;8.814;2023-02-03T20:34:27;6.90;99.90
4201;DHT22;2114;50.398;8.814;2023-02-03T20:39:28;6.90;99.90
4201;DHT22;2114;50.398;8.814;2023-02-03T20:44:28;6.90;99.90
4201;DHT22;2114;50.398;8.814;2023-02-03T20:49:29;6.90;99.90
4201;DHT22;2114;50.398;8.814;2023-02-03T20:54:30;6.90;99.90
4201;DHT22;2114;50.398;8.814;2023-02-03T20:59:30;6.90;99.90
4201;DHT22;2114;50.398;8.814;2023-02-03T21:04:31;6.90;99.90
4201;DHT22;2114;50.398;8.814;2023-02-03T21:09:51;6.90;99.90
4201;DHT22;2114;50.398;8.814;2023-02-03T21:14:51;6.90;99.90
4201;DHT22;2114;50.398;8.814;2023-02-03T21:19:54;6.90;99.90
4201;DHT22;2114;50.398;8.814;2023-02-03T21:24:59;6.90;99.90
4201;DHT22;2114;50.398;8.814;2023-02-03T21:30:09;6.90;99.90
4201;DHT22;2114;50.398;8.814;2023-02-03T21:35:28;6.90;99.90
4201;DHT22;2114;50.398;8.814;2023-02-03T21:40:32;6.90;99.90
4201;DHT22;2114;50.398;8.814;2023-02-03T21:45:36;6.90;99.90
4201;DHT22;2114;50.398;8.814;2023-02-03T21:50:37;6.90;99.90
4201;DHT22;2114;50.398;8.814;2023-02-03T21:55:41;6.90;99.90
4201;DHT22;2114;50.398;8.814;2023-02-03T22:00:42;6.90;99.90
4201;DHT22;2114;50.398;8.814;2023-02-03T22:05:47;6.90;99.90
4201;DHT22;2114;50.398;8.814;2023-02-03T22:10:48;6.80;99.90
4201;DHT22;2114;50.398;8.814;2023-02-03T22:15:48;6.80;99.90
4201;DHT22;2114;50.398;8.814;2023-02-03T22:20:50;6.80;99.90
4201;DHT22;2114;50.398;8.814;2023-02-03T22:25:50;6.80;99.90
4201;DHT22;2114;50.398;8.814;2023-02-03T22:30:51;6.80;99.90
4201;DHT22;2114;50.398;8.814;2023-02-03T22:35:52;6.80;99.90
4201;DHT22;2114;50.398;8.814;2023-02-03T22:40:52;6.80;99.90
4201;DHT22;2114;50.398;8.814;2023-02-03T22:45:53;6.80;99.90
4201;DHT22;2114;50.398;8.814;2023-02-03T22:50:54;6.80;99.90
4201;DHT22;2114;50.398;8.814;2023-02-03T22:55:55;6.80;99.90
4201;DHT22;2114;50.398;8.814;2023-02-03T23:00:55;6.80;99.90
4201;DHT22;2114;50.398;8.814;2023-02-03T23:05:56;6.80;99.90
4201;DHT22;2114;50.398;8.814;2023-02-03T23:10:56;6.80;99.90
4201;DHT22;2114;50.398;8.814;2023-02-03T23:15:57;6.80;99.90
4201;DHT22;2114;50.398;8.814;2023-02-03T23:20:57;6.80;99.90
4201;DHT22;2114;50.398;8.814;2023-02-03T23:25:58;6.80;99.90
4201;DHT22;2114;50.398;8.814;2023-02-03T23:30:58;6.80;99.90
4201;DHT22;2114;50.398;8.814;2023-02-03T23:35:59;6.80;99.90
4201;DHT22;2114;50.398;8.814;2023-02-03T23:40:59;6.70;99.90
4201;DHT22;2114;50.398;8.814;2023-02-03T23:46:00;6.80;99.90
4201;DHT22;2114;50.398;8.814;2023-02-03T23:51:00;6.70;99.90
4201;DHT22;2114;50.398;8.814;2023-02-03T23:56:01;6.70;99.90
